Twentynine Palms (Self) Airport
KNXP : rendu visible

Aérodrome :











RETROUVEZ-NOUS SUR...

 
LOGIN :

S'inscrire | Disclaimer

   EN    FR    IT 

 









Légende :    VFR   VFR Marginal   IFR   IFR Intensif   IFR Très Intensif
Visi : 
Plafond : 
>= 8 km
>= 3000ft
5 à 8 km
1000 à 3000 ft
1500m à 5 km
500 à 1000 ft
800 à 1500m
200 à 500 ft
< 800m
< 200 ft
Symboles :   Orages  Brouillard  Fortes neiges  Fortes précipitations  Vent > 20 kt






- Altitude de l'aérodrome : 2051 ft


KNXP - Twentynine Palms (Self)

DERNIER METAR :
  • 060156Z AUTO 23011KT 10SM CLR 39/M04 A2986 RMK AO2 SLP069 T03891044

METARs EXPIRÉS :
  • 060056Z AUTO 27011KT 10SM CLR 41/M03 A2987 RMK AO2 SLP070 T04061028
  • 052356Z AUTO 08004KT 10SM CLR 40/00 A2989 RMK AO2 SLP077 T04000000 10411 20361 56020

TAF COR TAF KNXP
Valide du 05 à 21h jusqu'au 06 à 21h UTC


0521/0621 VRB05KT 9999 SKC QNH2990INS
TEMPO 0600/0606 27012G16KT
BECMG 0615/0617 29010KT 9999 SKC QNH2996INS T39/0521Z T23/0612Z COR 2110
FIR KZLA / Amérique du Nord



MET'MAP, la Météo Aéronautique d'un coup d'oeil ! - Copyright ORBIFLY Décembre 2007 - Disclaimer

ORBIFLY MET'MAP TEAM :

Programmation & Développement : Alexandra Zaïnal
Sur une idée originale de : Baudouin d'Aumeries
Assistance à la programmation : Marc-Olivier Méhu
Soutien technique & logistique : Manuel Goepfert

Contact : metmap@orbifly.com




SOURCES & CREDITS :

   NOAA       Earth
Advisory